AREA preflight bulletin
Updated "live" 26 May 2018, 13:44

back to the map




METAR og TAF


THULE (MIL)
  AKTUEL
  TAF 24 timer BGTL 251215Z 2512/2615 14012KT 9999 FEW015 BKN050 QNH2962INS WND VRB06KT AFT 2521 BECMG 2612/2613 33006KT 9999 FEW018 QNH2960INS TX00/2517Z TNM06/2609Z LAST NO AMDS AFT 2512 NEXT 2901=

QAANAAQ
  AKTUEL BGQQ 261250Z 18001KT 9999 FEW003 M05/M09 Q1002 RMK 1SC =
  TAF 9 timer BGQQ 261158Z 2612/2619 VRB05KT 9999 FEW001 SCT060 PROB40 2612/2619 2500 BCFG=

UPERNAVIK
  AKTUEL BGUK 261320Z AUTO 35008KT 9999NDV BKN007/// M03/M04 Q0998=

ILULISSAT
  AKTUEL BGJN 261250Z 28005KT 9999 FEW180 04/M03 Q0994 RMK 1CI =
  TAF 9 timer BGJN 261120Z 2612/2620 VRB07KT 9999 SCT180 BECMG 2616/2619 20015KT TEMPO 2618/2620 BKN008=

KANGERLUSSUAQ
  AKTUEL BGSF 261320Z AUTO 25016KT 9999NDV NCD 06/M02 Q0994=
  TAF 24 timer BGSF 261055Z 2612/2718 25012KT 9999 SCT180 BECMG 2615/2618 BKN040 TEMPO 2620/2716 2500 -SN BKN012=


SIGMETS:

Ingen SIGMET fundet:

NOTAM/SNOWTAM for operationel use has to be confirmed with the
nearest AIS Briefing Office prior to a flight.

ICAO
BGTL (THULE (MIL))

FIR
BGGL

Notam_id:
BGA0184/18

valid from:
1805081756

E) TEMPORARY PRECISION APPROACH PATH INDICATOR OUT OF SERVICE. REF. GREENLAND AIP AD2 BGTL-14.

valid to:
1807232000


Replacing:
BGA0161/18

ICAO
BGQQ (QAANAAQ)

FIR
BGGL

Notam_id:
BGB0775/17

valid from:
1710101723

E) SEA RESCUE SERVICE NOT AVAIABLE.

valid to:
1807161200




ICAO
BGUK (UPERNAVIK)

FIR
BGGL

Notam_id:
BGB0393/18

valid from:
1805241919

E) OBST LIGHT ANEMOMETER THR 05 U/S.

valid to:
1808011400EST


Replacing:
BGB0390/18

ICAO
BGUK (UPERNAVIK)

FIR
BGGL

Notam_id:
BGB0870/17

valid from:
1711251409

E) SEA RESCUE SERVICE NOT AVBL.

valid to:
1805311400




ICAO
BGUK (UPERNAVIK)

FIR
BGGL

Notam_id:
BGB0392/18

valid from:
1805241915

E) ANEMOMETER THR RWY05 OUT OF SERVICE. WIND DATA IS FROM THR RWY23.

valid to:
1808011400EST




ICAO
BGGL (SONDRESTROM FIR)

FIR
BGGL

Notam_id:
BGA0176/18

valid from:
1805010506

E) CHECKLIST YEAR=2017 0269 YEAR=2018 0099 0100 0102 0106 0107 0108 0128 0161 0173 0174 0175 LATEST PUBLICATIONS AIP AIRAC AMDT IFR 005/2018 EFFECTIVE DATE 24 MAY 18 AIP AMDT IFR 003/2018 EFFECTIVE DATE 15 MAR 18 AIP SUP IFR 003/2018 EFFECTIVE DATE 24 APR 18 AIC IFR A002/2018 EFFECTIVE DATE 13 FEB 18

valid to:
1806010506EST


Replacing:
BGA0172/18

ICAO
BGGL (SONDRESTROM FIR)

FIR
BGGL

Notam_id:
BGB0341/18

valid from:
1805010506

E) CHECKLIST YEAR=2017 0740 0775 0870 0901 0902 0913 0918 0930 YEAR=2018 0002 0184 0185 0186 0187 0245 0256 0266 0299 0301 0302 0303 0310 0314 0315 0326 0333 0334 0335 0336 0337 0338 0339 0340 LATEST PUBLICATIONS AIP AIRAC AMDT IFR 005/2018 EFFECTIVE DATE 24 MAY 18 AIP AMDT IFR 003/2018 EFFECTIVE DATE 15 MAR 18 AIP SUP IFR 003/2018 EFFECTIVE DATE 24 APR 18 AIC IFR A002/2018 EFFECTIVE DATE 13 FEB 18

valid to:
1806010506EST


Replacing:
BGB0332/18

ICAO
BGGL (SONDRESTROM FIR)

FIR
BGGL

Notam_id:
BGC0038/18

valid from:
1805010506

E) CHECKLIST YEAR=2017 0055 0056 0077 YEAR=2018 0009 0010 0011 0014 0019 0020 0021 0022 0023 0024 0025 0026 0027 0028 0032 0037 LATEST PUBLICATIONS AIP AIRAC AMDT IFR 005/2018 EFFECTIVE DATE 24 MAY 18 AIP AMDT IFR 003/2018 EFFECTIVE DATE 15 MAR 18 AIP SUP IFR 003/2018 EFFECTIVE DATE 24 APR 18 AIC IFR A002/2018 EFFECTIVE DATE 13 FEB 18

valid to:
1806010506EST


Replacing:
BGC0036/18

ICAO
BGGL (SONDRESTROM FIR)

FIR
BGGL

Notam_id:
BGB0349/18

valid from:
1805160800

E) TRIGGER NOTAM - AIP SUP 04/18 - WEF 16 MAY 2018 TIL 09 AUG 2018. TEMPORARY RESTRICTED AREA DUE TO DRONE ACTIVITY. F) SFC G) 12500FT AMSL

valid to:
1805300800




ICAO
BGGL (SONDRESTROM FIR)

FIR
BGGL

Notam_id:
BGA0177/18

valid from:
1806210000

E) TRIGGER NOTAM - PERM AIP AIRAC AMDT 06/18 WEF 21 JUN 2018. VARIATION UPDATED FOR ATS ROUTE W20.

valid to:
1807042359




ICAO
BGGL (SONDRESTROM FIR)

FIR
BGGL

Notam_id:
BGB0350/18

valid from:
1805160800

D) DAILY 0800-2200


E) TEMPORARY RESTRICTED AREA DUE TO DRONE ACTIVITY IS ACTIVE. REF AIP SUP 04/18 PUBLISHED 03 MAY 2018. LATERAL LIMITS: 753531N0361504W 753859N0355013W 753238N0353637W 752918N0360004W NO TRAFFIC PERMITTED IN THE AREA. F) SFC G) 12500FT AMSL

valid to:
1808092200




ICAO
BGJN (ILULISSAT)

FIR
BGGL

Notam_id:
BGB0337/18

valid from:
1804301508

E) NDB JV TOP OBSTRUCTION LIGHT OUT OF SERVICE. HGT 246FT.

valid to:
1805311900


Replacing:
BGB0246/18

ICAO
BGSF (KANGERLUSSUAQ)

FIR
BGGL

Notam_id:
BGA0106/18

valid from:
1803101130

E) PAPI LIGHTS ARE SET ON 10 PERCENT INTENSITY. 20 MINUTES PRIOR NOTICE REQUIRED TO CHANGE SETTING.

valid to:
1806101800EST


Replacing:
BGA0016/18

ICAO
BGSF (KANGERLUSSUAQ)

FIR
BGGL

Notam_id:
BGA0107/18

valid from:
1803101130

E) APCH LIGHTS ARE SET ON 10 PERCENT INTENSITY. 20 MINUTES PRIOR NOTICE REQUIRED TO CHANGE SETTING.

valid to:
1806101800EST


Replacing:
BGA0017/18

ICAO
BGSF (KANGERLUSSUAQ)

FIR
BGGL

Notam_id:
BGA0108/18

valid from:
1803101131

E) RWY EDGE LIGHTS ARE SET ON 10 PERCENT INTENSITY. 20 MINUTES PRIOR NOTICE REQUIRED TO CHANGE SETTING.

valid to:
1806101800EST


Replacing:
BGA0018/18


Copyright Naviair   2003-2016